sensor_id;sensor_type;location;lat;lon;timestamp;temperature;humidity
37874;DHT22;23709;48.078;11.684;2023-09-07T00:01:07;14.50;99.90
37874;DHT22;23709;48.078;11.684;2023-09-07T00:03:40;14.50;99.90
37874;DHT22;23709;48.078;11.684;2023-09-07T00:06:14;14.50;99.90
37874;DHT22;23709;48.078;11.684;2023-09-07T00:08:46;14.50;99.90
37874;DHT22;23709;48.078;11.684;2023-09-07T00:11:18;14.50;99.90
37874;DHT22;23709;48.078;11.684;2023-09-07T00:13:51;14.40;99.90
37874;DHT22;23709;48.078;11.684;2023-09-07T00:16:23;14.40;99.90
37874;DHT22;23709;48.078;11.684;2023-09-07T00:18:56;14.30;99.90
37874;DHT22;23709;48.078;11.684;2023-09-07T00:21:28;14.30;99.90
37874;DHT22;23709;48.078;11.684;2023-09-07T00:24:00;14.30;99.90
37874;DHT22;23709;48.078;11.684;2023-09-07T00:26:37;14.30;99.90
37874;DHT22;23709;48.078;11.684;2023-09-07T00:29:09;14.30;99.90
37874;DHT22;23709;48.078;11.684;2023-09-07T00:31:41;14.30;99.90
37874;DHT22;23709;48.078;11.684;2023-09-07T00:34:13;14.30;99.90
37874;DHT22;23709;48.078;11.684;2023-09-07T00:36:46;14.20;99.90
37874;DHT22;23709;48.078;11.684;2023-09-07T00:39:18;14.20;99.90
37874;DHT22;23709;48.078;11.684;2023-09-07T00:41:50;14.20;99.90
37874;DHT22;23709;48.078;11.684;2023-09-07T00:44:23;14.10;99.90
37874;DHT22;23709;48.078;11.684;2023-09-07T00:46:57;14.10;99.90
37874;DHT22;23709;48.078;11.684;2023-09-07T00:49:29;14.10;99.90
37874;DHT22;23709;48.078;11.684;2023-09-07T00:52:02;14.10;99.90
37874;DHT22;23709;48.078;11.684;2023-09-07T00:54:36;14.00;99.90
37874;DHT22;23709;48.078;11.684;2023-09-07T00:57:10;14.00;99.90
37874;DHT22;23709;48.078;11.684;2023-09-07T00:59:42;14.00;99.90
37874;DHT22;23709;48.078;11.684;2023-09-07T01:02:15;13.90;99.90
37874;DHT22;23709;48.078;11.684;2023-09-07T01:04:47;13.90;99.90
37874;DHT22;23709;48.078;11.684;2023-09-07T01:07:31;13.90;99.90
37874;DHT22;23709;48.078;11.684;2023-09-07T01:10:05;13.90;99.90
37874;DHT22;23709;48.078;11.684;2023-09-07T01:12:38;13.80;99.90
37874;DHT22;23709;48.078;11.684;2023-09-07T01:15:10;13.70;99.90
37874;DHT22;23709;48.078;11.684;2023-09-07T01:17:43;13.60;99.90
37874;DHT22;23709;48.078;11.684;2023-09-07T01:20:16;13.70;99.90
37874;DHT22;23709;48.078;11.684;2023-09-07T01:22:49;13.60;99.90
37874;DHT22;23709;48.078;11.684;2023-09-07T01:25:23;13.70;99.90
37874;DHT22;23709;48.078;11.684;2023-09-07T01:27:55;13.70;99.90
37874;DHT22;23709;48.078;11.684;2023-09-07T01:30:27;13.70;99.90
37874;DHT22;23709;48.078;11.684;2023-09-07T01:33:00;13.70;99.90
37874;DHT22;23709;48.078;11.684;2023-09-07T01:35:33;13.70;99.90
37874;DHT22;23709;48.078;11.684;2023-09-07T01:38:07;13.70;99.90
37874;DHT22;23709;48.078;11.684;2023-09-07T01:40:39;13.60;99.90
37874;DHT22;23709;48.078;11.684;2023-09-07T01:43:12;13.60;99.90
37874;DHT22;23709;48.078;11.684;2023-09-07T01:45:44;13.60;99.90
37874;DHT22;23709;48.078;11.684;2023-09-07T01:48:16;13.60;99.90
37874;DHT22;23709;48.078;11.684;2023-09-07T01:50:52;13.50;99.90
37874;DHT22;23709;48.078;11.684;2023-09-07T01:53:26;13.50;99.90
37874;DHT22;23709;48.078;11.684;2023-09-07T01:55:58;13.40;99.90
37874;DHT22;23709;48.078;11.684;2023-09-07T01:58:33;13.40;99.90
37874;DHT22;23709;48.078;11.684;2023-09-07T02:01:05;13.40;99.90
37874;DHT22;23709;48.078;11.684;2023-09-07T02:03:37;13.40;99.90
37874;DHT22;23709;48.078;11.684;2023-09-07T02:06:10;13.40;99.90
37874;DHT22;23709;48.078;11.684;2023-09-07T02:08:42;13.40;99.90
37874;DHT22;23709;48.078;11.684;2023-09-07T02:11:15;13.40;99.90
37874;DHT22;23709;48.078;11.684;2023-09-07T02:13:48;13.30;99.90
37874;DHT22;23709;48.078;11.684;2023-09-07T02:16:20;13.30;99.90
37874;DHT22;23709;48.078;11.684;2023-09-07T02:19:01;13.30;99.90
37874;DHT22;23709;48.078;11.684;2023-09-07T02:21:33;13.30;99.90
37874;DHT22;23709;48.078;11.684;2023-09-07T02:24:05;13.30;99.90
37874;DHT22;23709;48.078;11.684;2023-09-07T02:26:38;13.20;99.90
37874;DHT22;23709;48.078;11.684;2023-09-07T02:29:15;13.30;99.90
37874;DHT22;23709;48.078;11.684;2023-09-07T02:31:48;13.20;99.90
37874;DHT22;23709;48.078;11.684;2023-09-07T02:34:20;13.20;99.90
37874;DHT22;23709;48.078;11.684;2023-09-07T02:36:53;13.10;99.90
37874;DHT22;23709;48.078;11.684;2023-09-07T02:39:25;13.10;99.90
37874;DHT22;23709;48.078;11.684;2023-09-07T02:41:58;13.10;99.90
37874;DHT22;23709;48.078;11.684;2023-09-07T02:44:30;13.00;99.90
37874;DHT22;23709;48.078;11.684;2023-09-07T02:47:03;13.00;99.90
37874;DHT22;23709;48.078;11.684;2023-09-07T02:49:35;12.90;99.90
37874;DHT22;23709;48.078;11.684;2023-09-07T02:52:08;12.80;99.90
37874;DHT22;23709;48.078;11.684;2023-09-07T02:54:41;12.70;99.90
37874;DHT22;23709;48.078;11.684;2023-09-07T02:57:14;12.70;99.90
37874;DHT22;23709;48.078;11.684;2023-09-07T02:59:47;12.70;99.90
37874;DHT22;23709;48.078;11.684;2023-09-07T03:02:19;12.70;99.90
37874;DHT22;23709;48.078;11.684;2023-09-07T03:04:55;12.70;99.90
37874;DHT22;23709;48.078;11.684;2023-09-07T03:07:33;12.70;99.90
37874;DHT22;23709;48.078;11.684;2023-09-07T03:10:05;12.70;99.90
37874;DHT22;23709;48.078;11.684;2023-09-07T03:12:39;12.70;99.90
37874;DHT22;23709;48.078;11.684;2023-09-07T03:15:11;12.70;99.90
37874;DHT22;23709;48.078;11.684;2023-09-07T03:17:46;12.70;99.90
37874;DHT22;23709;48.078;11.684;2023-09-07T03:20:18;12.60;99.90
37874;DHT22;23709;48.078;11.684;2023-09-07T03:22:54;12.70;99.90
37874;DHT22;23709;48.078;11.684;2023-09-07T03:25:28;12.70;99.90
37874;DHT22;23709;48.078;11.684;2023-09-07T03:28:00;12.60;99.90
37874;DHT22;23709;48.078;11.684;2023-09-07T03:30:33;12.50;99.90
37874;DHT22;23709;48.078;11.684;2023-09-07T03:33:06;12.50;99.90
37874;DHT22;23709;48.078;11.684;2023-09-07T03:35:39;12.50;99.90
37874;DHT22;23709;48.078;11.684;2023-09-07T03:38:13;12.40;99.90
37874;DHT22;23709;48.078;11.684;2023-09-07T03:40:46;12.40;99.90
37874;DHT22;23709;48.078;11.684;2023-09-07T03:43:18;12.40;99.90
37874;DHT22;23709;48.078;11.684;2023-09-07T03:45:51;12.30;99.90
37874;DHT22;23709;48.078;11.684;2023-09-07T03:48:23;12.40;99.90
37874;DHT22;23709;48.078;11.684;2023-09-07T03:50:55;12.40;99.90
37874;DHT22;23709;48.078;11.684;2023-09-07T03:53:27;12.30;99.90
37874;DHT22;23709;48.078;11.684;2023-09-07T03:56:02;12.30;99.90
37874;DHT22;23709;48.078;11.684;2023-09-07T03:58:36;12.30;99.90
37874;DHT22;23709;48.078;11.684;2023-09-07T04:01:08;12.30;99.90
37874;DHT22;23709;48.078;11.684;2023-09-07T04:03:41;12.30;99.90
37874;DHT22;23709;48.078;11.684;2023-09-07T04:06:14;12.20;99.90
37874;DHT22;23709;48.078;11.684;2023-09-07T04:08:46;12.10;99.90
37874;DHT22;23709;48.078;11.684;2023-09-07T04:11:18;12.10;99.90
37874;DHT22;23709;48.078;11.684;2023-09-07T04:13:50;12.10;99.90
37874;DHT22;23709;48.078;11.684;2023-09-07T04:16:23;12.10;99.90
37874;DHT22;23709;48.078;11.684;2023-09-07T04:18:55;12.10;99.90
37874;DHT22;23709;48.078;11.684;2023-09-07T04:21:27;12.20;99.90
37874;DHT22;23709;48.078;11.684;2023-09-07T04:24:08;12.20;99.90
37874;DHT22;23709;48.078;11.684;2023-09-07T04:26:42;12.20;99.90
37874;DHT22;23709;48.078;11.684;2023-09-07T04:29:14;12.20;99.90
37874;DHT22;23709;48.078;11.684;2023-09-07T04:31:46;12.10;99.90
37874;DHT22;23709;48.078;11.684;2023-09-07T04:34:18;12.10;99.90
37874;DHT22;23709;48.078;11.684;2023-09-07T04:36:51;12.10;99.90
37874;DHT22;23709;48.078;11.684;2023-09-07T04:39:24;12.00;99.90
37874;DHT22;23709;48.078;11.684;2023-09-07T04:41:57;12.00;99.90
37874;DHT22;23709;48.078;11.684;2023-09-07T04:44:29;11.90;99.90
37874;DHT22;23709;48.078;11.684;2023-09-07T04:47:01;11.80;99.90
37874;DHT22;23709;48.078;11.684;2023-09-07T04:49:34;11.90;99.90
37874;DHT22;23709;48.078;11.684;2023-09-07T04:52:06;12.00;99.90
37874;DHT22;23709;48.078;11.684;2023-09-07T04:54:39;12.10;99.90
37874;DHT22;23709;48.078;11.684;2023-09-07T04:57:13;12.10;99.90
37874;DHT22;23709;48.078;11.684;2023-09-07T04:59:45;12.00;99.90
37874;DHT22;23709;48.078;11.684;2023-09-07T05:02:17;12.10;99.90
37874;DHT22;23709;48.078;11.684;2023-09-07T05:04:50;12.00;99.90
37874;DHT22;23709;48.078;11.684;2023-09-07T05:07:25;12.00;99.90
37874;DHT22;23709;48.078;11.684;2023-09-07T05:09:57;11.90;99.90
37874;DHT22;23709;48.078;11.684;2023-09-07T05:12:30;11.90;99.90
37874;DHT22;23709;48.078;11.684;2023-09-07T05:15:04;11.90;99.90
37874;DHT22;23709;48.078;11.684;2023-09-07T05:17:38;11.90;99.90
37874;DHT22;23709;48.078;11.684;2023-09-07T05:20:10;12.00;99.90
37874;DHT22;23709;48.078;11.684;2023-09-07T05:22:43;12.10;99.90
37874;DHT22;23709;48.078;11.684;2023-09-07T05:25:15;12.00;99.90
37874;DHT22;23709;48.078;11.684;2023-09-07T05:27:48;12.00;99.90
37874;DHT22;23709;48.078;11.684;2023-09-07T05:30:21;12.00;99.90
37874;DHT22;23709;48.078;11.684;2023-09-07T05:32:54;12.00;99.90
37874;DHT22;23709;48.078;11.684;2023-09-07T05:35:26;12.20;99.90
37874;DHT22;23709;48.078;11.684;2023-09-07T05:38:02;12.30;99.90
37874;DHT22;23709;48.078;11.684;2023-09-07T05:40:37;12.30;99.90
37874;DHT22;23709;48.078;11.684;2023-09-07T05:43:10;12.40;99.90
37874;DHT22;23709;48.078;11.684;2023-09-07T05:45:43;12.50;99.90
37874;DHT22;23709;48.078;11.684;2023-09-07T05:48:16;12.60;99.90
37874;DHT22;23709;48.078;11.684;2023-09-07T05:50:50;12.60;99.90
37874;DHT22;23709;48.078;11.684;2023-09-07T05:53:23;12.60;99.90
37874;DHT22;23709;48.078;11.684;2023-09-07T05:55:56;12.80;99.90
37874;DHT22;23709;48.078;11.684;2023-09-07T05:58:29;12.80;99.90
37874;DHT22;23709;48.078;11.684;2023-09-07T06:01:02;12.90;99.90
37874;DHT22;23709;48.078;11.684;2023-09-07T06:03:34;12.90;99.90
37874;DHT22;23709;48.078;11.684;2023-09-07T06:06:08;13.00;99.90
37874;DHT22;23709;48.078;11.684;2023-09-07T06:08:40;13.00;99.90
37874;DHT22;23709;48.078;11.684;2023-09-07T06:11:13;13.10;99.90
37874;DHT22;23709;48.078;11.684;2023-09-07T06:13:45;13.30;99.90
37874;DHT22;23709;48.078;11.684;2023-09-07T06:16:19;13.40;99.90
37874;DHT22;23709;48.078;11.684;2023-09-07T06:18:51;13.40;99.90
37874;DHT22;23709;48.078;11.684;2023-09-07T06:21:24;13.60;99.90
37874;DHT22;23709;48.078;11.684;2023-09-07T06:23:57;13.80;99.90
37874;DHT22;23709;48.078;11.684;2023-09-07T06:26:29;13.90;99.90
37874;DHT22;23709;48.078;11.684;2023-09-07T06:29:01;14.00;99.90
37874;DHT22;23709;48.078;11.684;2023-09-07T06:31:34;14.10;99.90
37874;DHT22;23709;48.078;11.684;2023-09-07T06:34:06;14.20;99.90
37874;DHT22;23709;48.078;11.684;2023-09-07T06:36:39;14.40;99.90
37874;DHT22;23709;48.078;11.684;2023-09-07T06:39:22;14.60;99.90
37874;DHT22;23709;48.078;11.684;2023-09-07T06:41:54;14.80;99.90
37874;DHT22;23709;48.078;11.684;2023-09-07T06:44:34;15.00;99.90
37874;DHT22;23709;48.078;11.684;2023-09-07T06:47:07;15.30;99.90
37874;DHT22;23709;48.078;11.684;2023-09-07T06:49:39;15.40;99.90
37874;DHT22;23709;48.078;11.684;2023-09-07T06:52:12;15.60;99.90
37874;DHT22;23709;48.078;11.684;2023-09-07T06:54:45;15.80;99.90
37874;DHT22;23709;48.078;11.684;2023-09-07T06:57:17;16.00;99.90
37874;DHT22;23709;48.078;11.684;2023-09-07T06:59:50;16.10;99.90
37874;DHT22;23709;48.078;11.684;2023-09-07T07:02:22;16.30;99.90
37874;DHT22;23709;48.078;11.684;2023-09-07T07:04:55;16.50;99.90
37874;DHT22;23709;48.078;11.684;2023-09-07T07:07:29;16.60;99.90
37874;DHT22;23709;48.078;11.684;2023-09-07T07:10:02;16.70;99.90
37874;DHT22;23709;48.078;11.684;2023-09-07T07:12:36;16.80;99.90
37874;DHT22;23709;48.078;11.684;2023-09-07T07:15:10;16.90;99.90
37874;DHT22;23709;48.078;11.684;2023-09-07T07:17:44;17.10;99.90
37874;DHT22;23709;48.078;11.684;2023-09-07T07:20:16;17.30;99.90
37874;DHT22;23709;48.078;11.684;2023-09-07T07:22:48;17.40;99.90
37874;DHT22;23709;48.078;11.684;2023-09-07T07:25:22;17.60;99.90
37874;DHT22;23709;48.078;11.684;2023-09-07T07:27:54;17.70;99.90
37874;DHT22;23709;48.078;11.684;2023-09-07T07:30:27;17.80;99.90
37874;DHT22;23709;48.078;11.684;2023-09-07T07:33:03;18.00;99.90
37874;DHT22;23709;48.078;11.684;2023-09-07T07:35:37;18.00;99.90
37874;DHT22;23709;48.078;11.684;2023-09-07T07:38:11;18.20;99.90
37874;DHT22;23709;48.078;11.684;2023-09-07T07:40:46;18.30;99.90
37874;DHT22;23709;48.078;11.684;2023-09-07T07:43:19;18.50;99.90
37874;DHT22;23709;48.078;11.684;2023-09-07T07:45:53;18.60;99.90
37874;DHT22;23709;48.078;11.684;2023-09-07T07:48:27;18.80;99.90
37874;DHT22;23709;48.078;11.684;2023-09-07T07:51:05;18.90;99.90
37874;DHT22;23709;48.078;11.684;2023-09-07T07:53:42;19.00;99.90
37874;DHT22;23709;48.078;11.684;2023-09-07T07:56:19;19.10;99.90
37874;DHT22;23709;48.078;11.684;2023-09-07T07:58:55;19.30;99.90
37874;DHT22;23709;48.078;11.684;2023-09-07T08:01:27;19.20;99.90
37874;DHT22;23709;48.078;11.684;2023-09-07T08:04:03;19.30;99.90
37874;DHT22;23709;48.078;11.684;2023-09-07T08:06:37;19.50;99.90
37874;DHT22;23709;48.078;11.684;2023-09-07T08:09:09;19.60;99.90
37874;DHT22;23709;48.078;11.684;2023-09-07T08:11:42;19.60;99.90
37874;DHT22;23709;48.078;11.684;2023-09-07T08:14:15;19.60;99.90
37874;DHT22;23709;48.078;11.684;2023-09-07T08:16:47;19.70;99.90
37874;DHT22;23709;48.078;11.684;2023-09-07T08:19:20;19.80;99.90
37874;DHT22;23709;48.078;11.684;2023-09-07T08:21:52;19.90;99.90
37874;DHT22;23709;48.078;11.684;2023-09-07T08:24:25;19.90;99.90
37874;DHT22;23709;48.078;11.684;2023-09-07T08:26:57;19.90;99.90
37874;DHT22;23709;48.078;11.684;2023-09-07T08:29:33;20.10;99.90
37874;DHT22;23709;48.078;11.684;2023-09-07T08:32:05;20.00;99.90
37874;DHT22;23709;48.078;11.684;2023-09-07T08:34:37;20.10;99.90
37874;DHT22;23709;48.078;11.684;2023-09-07T08:37:12;20.10;99.90
37874;DHT22;23709;48.078;11.684;2023-09-07T08:39:44;20.20;99.90
37874;DHT22;23709;48.078;11.684;2023-09-07T08:42:16;20.20;99.90
37874;DHT22;23709;48.078;11.684;2023-09-07T08:44:51;20.30;99.90
37874;DHT22;23709;48.078;11.684;2023-09-07T08:47:27;20.30;99.90
37874;DHT22;23709;48.078;11.684;2023-09-07T08:50:02;20.40;99.90
37874;DHT22;23709;48.078;11.684;2023-09-07T08:52:36;20.40;99.90
37874;DHT22;23709;48.078;11.684;2023-09-07T08:55:09;20.50;99.90
37874;DHT22;23709;48.078;11.684;2023-09-07T08:57:43;20.60;99.90
37874;DHT22;23709;48.078;11.684;2023-09-07T09:00:16;20.60;99.90
37874;DHT22;23709;48.078;11.684;2023-09-07T09:02:49;20.60;99.90
37874;DHT22;23709;48.078;11.684;2023-09-07T09:05:28;20.70;99.90
37874;DHT22;23709;48.078;11.684;2023-09-07T09:08:05;20.80;99.90
37874;DHT22;23709;48.078;11.684;2023-09-07T09:10:40;20.70;99.90
37874;DHT22;23709;48.078;11.684;2023-09-07T09:13:13;20.70;99.90
37874;DHT22;23709;48.078;11.684;2023-09-07T09:15:47;20.80;99.90
37874;DHT22;23709;48.078;11.684;2023-09-07T09:18:20;20.90;99.90
37874;DHT22;23709;48.078;11.684;2023-09-07T09:20:52;21.00;99.90
37874;DHT22;23709;48.078;11.684;2023-09-07T09:23:37;21.00;99.90
37874;DHT22;23709;48.078;11.684;2023-09-07T09:26:09;21.10;99.90
37874;DHT22;23709;48.078;11.684;2023-09-07T09:28:42;21.10;99.90
37874;DHT22;23709;48.078;11.684;2023-09-07T09:31:17;21.20;99.90
37874;DHT22;23709;48.078;11.684;2023-09-07T09:33:50;21.30;99.90
37874;DHT22;23709;48.078;11.684;2023-09-07T09:36:23;21.40;99.90
37874;DHT22;23709;48.078;11.684;2023-09-07T09:38:55;21.50;99.90
37874;DHT22;23709;48.078;11.684;2023-09-07T09:41:32;21.50;99.90
37874;DHT22;23709;48.078;11.684;2023-09-07T09:44:05;21.50;99.90
37874;DHT22;23709;48.078;11.684;2023-09-07T09:46:39;21.60;99.90
37874;DHT22;23709;48.078;11.684;2023-09-07T09:49:13;21.70;99.90
37874;DHT22;23709;48.078;11.684;2023-09-07T09:51:46;21.80;99.90
37874;DHT22;23709;48.078;11.684;2023-09-07T09:54:20;21.80;99.90
37874;DHT22;23709;48.078;11.684;2023-09-07T09:56:57;21.90;99.90
37874;DHT22;23709;48.078;11.684;2023-09-07T09:59:30;21.90;99.90
37874;DHT22;23709;48.078;11.684;2023-09-07T10:02:03;21.90;99.90
37874;DHT22;23709;48.078;11.684;2023-09-07T10:04:36;21.90;99.90
37874;DHT22;23709;48.078;11.684;2023-09-07T10:07:09;22.00;99.90
37874;DHT22;23709;48.078;11.684;2023-09-07T10:09:43;22.10;99.90
37874;DHT22;23709;48.078;11.684;2023-09-07T10:12:15;22.10;99.90
37874;DHT22;23709;48.078;11.684;2023-09-07T10:14:48;22.30;99.90
37874;DHT22;23709;48.078;11.684;2023-09-07T10:17:23;22.30;99.90
37874;DHT22;23709;48.078;11.684;2023-09-07T10:20:03;22.40;99.90
37874;DHT22;23709;48.078;11.684;2023-09-07T10:22:37;22.40;99.90
37874;DHT22;23709;48.078;11.684;2023-09-07T10:25:20;22.50;99.90
37874;DHT22;23709;48.078;11.684;2023-09-07T10:27:53;22.60;99.90
37874;DHT22;23709;48.078;11.684;2023-09-07T10:30:25;22.60;99.90
37874;DHT22;23709;48.078;11.684;2023-09-07T10:32:58;22.70;99.90
37874;DHT22;23709;48.078;11.684;2023-09-07T10:35:35;22.80;99.90
37874;DHT22;23709;48.078;11.684;2023-09-07T10:38:13;22.90;99.90
37874;DHT22;23709;48.078;11.684;2023-09-07T10:40:48;22.90;99.90
37874;DHT22;23709;48.078;11.684;2023-09-07T10:43:20;23.00;99.90
37874;DHT22;23709;48.078;11.684;2023-09-07T10:45:54;23.10;99.90
37874;DHT22;23709;48.078;11.684;2023-09-07T10:48:30;23.10;99.90
37874;DHT22;23709;48.078;11.684;2023-09-07T10:51:03;23.20;99.90
37874;DHT22;23709;48.078;11.684;2023-09-07T10:53:36;23.30;99.90
37874;DHT22;23709;48.078;11.684;2023-09-07T10:56:08;23.30;99.90
37874;DHT22;23709;48.078;11.684;2023-09-07T10:58:41;23.50;99.90
37874;DHT22;23709;48.078;11.684;2023-09-07T11:01:16;23.50;99.90
37874;DHT22;23709;48.078;11.684;2023-09-07T11:03:49;23.60;99.90
37874;DHT22;23709;48.078;11.684;2023-09-07T11:06:21;23.80;99.90
37874;DHT22;23709;48.078;11.684;2023-09-07T11:09:02;23.90;99.90
37874;DHT22;23709;48.078;11.684;2023-09-07T11:11:37;24.10;99.90
37874;DHT22;23709;48.078;11.684;2023-09-07T11:14:09;24.30;99.90
37874;DHT22;23709;48.078;11.684;2023-09-07T11:16:42;24.60;99.90
37874;DHT22;23709;48.078;11.684;2023-09-07T11:19:15;24.80;99.90
37874;DHT22;23709;48.078;11.684;2023-09-07T11:21:47;24.80;99.90
37874;DHT22;23709;48.078;11.684;2023-09-07T11:24:20;25.00;99.90
37874;DHT22;23709;48.078;11.684;2023-09-07T11:26:52;25.10;99.90
37874;DHT22;23709;48.078;11.684;2023-09-07T11:29:25;25.30;99.90
37874;DHT22;23709;48.078;11.684;2023-09-07T11:32:08;25.60;99.90
37874;DHT22;23709;48.078;11.684;2023-09-07T11:34:53;25.90;99.90
37874;DHT22;23709;48.078;11.684;2023-09-07T11:37:31;26.30;99.90
37874;DHT22;23709;48.078;11.684;2023-09-07T11:40:04;26.80;99.90
37874;DHT22;23709;48.078;11.684;2023-09-07T11:42:43;27.10;99.90
37874;DHT22;23709;48.078;11.684;2023-09-07T11:45:15;27.50;99.90
37874;DHT22;23709;48.078;11.684;2023-09-07T11:47:49;27.80;98.90
37874;DHT22;23709;48.078;11.684;2023-09-07T11:50:23;28.00;98.30
37874;DHT22;23709;48.078;11.684;2023-09-07T11:52:56;28.30;98.00
37874;DHT22;23709;48.078;11.684;2023-09-07T11:55:29;28.70;96.40
37874;DHT22;23709;48.078;11.684;2023-09-07T11:58:02;28.80;95.10
37874;DHT22;23709;48.078;11.684;2023-09-07T12:00:35;29.00;94.80
37874;DHT22;23709;48.078;11.684;2023-09-07T12:03:07;29.30;95.10
37874;DHT22;23709;48.078;11.684;2023-09-07T12:05:40;29.50;94.50
37874;DHT22;23709;48.078;11.684;2023-09-07T12:08:14;29.60;93.40
37874;DHT22;23709;48.078;11.684;2023-09-07T12:10:46;29.80;92.60
37874;DHT22;23709;48.078;11.684;2023-09-07T12:13:19;29.90;93.40
37874;DHT22;23709;48.078;11.684;2023-09-07T12:15:51;30.00;92.30
37874;DHT22;23709;48.078;11.684;2023-09-07T12:18:23;30.10;92.00
37874;DHT22;23709;48.078;11.684;2023-09-07T12:20:56;30.40;92.40
37874;DHT22;23709;48.078;11.684;2023-09-07T12:23:28;30.70;90.60
37874;DHT22;23709;48.078;11.684;2023-09-07T12:26:01;30.70;90.40
37874;DHT22;23709;48.078;11.684;2023-09-07T12:28:36;30.70;90.20
37874;DHT22;23709;48.078;11.684;2023-09-07T12:31:08;31.00;90.00
37874;DHT22;23709;48.078;11.684;2023-09-07T12:33:41;30.80;87.50
37874;DHT22;23709;48.078;11.684;2023-09-07T12:36:13;30.60;87.60
37874;DHT22;23709;48.078;11.684;2023-09-07T12:38:45;30.60;86.50
37874;DHT22;23709;48.078;11.684;2023-09-07T12:41:18;30.80;84.80
37874;DHT22;23709;48.078;11.684;2023-09-07T12:43:50;30.90;85.40
37874;DHT22;23709;48.078;11.684;2023-09-07T12:46:23;31.10;83.90
37874;DHT22;23709;48.078;11.684;2023-09-07T12:48:55;31.30;82.70
37874;DHT22;23709;48.078;11.684;2023-09-07T12:51:27;31.40;83.80
37874;DHT22;23709;48.078;11.684;2023-09-07T12:54:00;31.60;81.70
37874;DHT22;23709;48.078;11.684;2023-09-07T12:56:32;31.50;82.40
37874;DHT22;23709;48.078;11.684;2023-09-07T12:59:05;31.60;81.70
37874;DHT22;23709;48.078;11.684;2023-09-07T13:01:37;31.60;82.40
37874;DHT22;23709;48.078;11.684;2023-09-07T13:04:09;31.80;77.40
37874;DHT22;23709;48.078;11.684;2023-09-07T13:06:43;31.80;76.90
37874;DHT22;23709;48.078;11.684;2023-09-07T13:09:16;31.60;76.80
37874;DHT22;23709;48.078;11.684;2023-09-07T13:11:48;31.60;75.70
37874;DHT22;23709;48.078;11.684;2023-09-07T13:14:20;31.50;76.30
37874;DHT22;23709;48.078;11.684;2023-09-07T13:17:05;31.60;77.20
37874;DHT22;23709;48.078;11.684;2023-09-07T13:19:37;31.80;73.90
37874;DHT22;23709;48.078;11.684;2023-09-07T13:22:10;32.00;71.70
37874;DHT22;23709;48.078;11.684;2023-09-07T13:24:42;32.00;72.20
37874;DHT22;23709;48.078;11.684;2023-09-07T13:27:15;31.80;72.50
37874;DHT22;23709;48.078;11.684;2023-09-07T13:29:48;31.80;72.20
37874;DHT22;23709;48.078;11.684;2023-09-07T13:32:20;31.70;71.70
37874;DHT22;23709;48.078;11.684;2023-09-07T13:34:52;32.00;72.40
37874;DHT22;23709;48.078;11.684;2023-09-07T13:37:24;31.90;72.50
37874;DHT22;23709;48.078;11.684;2023-09-07T13:39:56;31.90;71.00
37874;DHT22;23709;48.078;11.684;2023-09-07T13:42:29;31.70;68.60
37874;DHT22;23709;48.078;11.684;2023-09-07T13:45:01;31.50;67.90
37874;DHT22;23709;48.078;11.684;2023-09-07T13:47:34;31.60;66.40
37874;DHT22;23709;48.078;11.684;2023-09-07T13:50:07;31.90;67.20
37874;DHT22;23709;48.078;11.684;2023-09-07T13:52:42;31.60;65.90
37874;DHT22;23709;48.078;11.684;2023-09-07T13:55:15;32.20;65.60
37874;DHT22;23709;48.078;11.684;2023-09-07T13:57:47;32.30;63.10
37874;DHT22;23709;48.078;11.684;2023-09-07T14:00:20;32.30;65.00
37874;DHT22;23709;48.078;11.684;2023-09-07T14:02:52;32.50;62.70
37874;DHT22;23709;48.078;11.684;2023-09-07T14:05:25;32.50;63.30
37874;DHT22;23709;48.078;11.684;2023-09-07T14:07:57;32.60;62.90
37874;DHT22;23709;48.078;11.684;2023-09-07T14:10:29;32.50;61.70
37874;DHT22;23709;48.078;11.684;2023-09-07T14:13:02;32.50;62.10
37874;DHT22;23709;48.078;11.684;2023-09-07T14:15:34;32.80;63.20
37874;DHT22;23709;48.078;11.684;2023-09-07T14:18:07;32.50;63.10
37874;DHT22;23709;48.078;11.684;2023-09-07T14:20:40;32.20;64.00
37874;DHT22;23709;48.078;11.684;2023-09-07T14:23:12;32.40;63.40
37874;DHT22;23709;48.078;11.684;2023-09-07T14:25:44;32.50;62.40
37874;DHT22;23709;48.078;11.684;2023-09-07T14:28:17;32.30;63.80
37874;DHT22;23709;48.078;11.684;2023-09-07T14:30:49;32.20;63.10
37874;DHT22;23709;48.078;11.684;2023-09-07T14:33:23;32.20;62.90
37874;DHT22;23709;48.078;11.684;2023-09-07T14:35:55;32.00;62.70
37874;DHT22;23709;48.078;11.684;2023-09-07T14:38:28;32.00;62.90
37874;DHT22;23709;48.078;11.684;2023-09-07T14:41:01;31.80;63.60
37874;DHT22;23709;48.078;11.684;2023-09-07T14:43:35;31.50;63.80
37874;DHT22;23709;48.078;11.684;2023-09-07T14:46:07;31.20;64.00
37874;DHT22;23709;48.078;11.684;2023-09-07T14:48:41;30.70;64.80
37874;DHT22;23709;48.078;11.684;2023-09-07T14:51:13;30.20;65.30
37874;DHT22;23709;48.078;11.684;2023-09-07T14:53:45;29.80;66.20
37874;DHT22;23709;48.078;11.684;2023-09-07T14:56:18;29.30;67.80
37874;DHT22;23709;48.078;11.684;2023-09-07T14:58:50;29.00;68.90
37874;DHT22;23709;48.078;11.684;2023-09-07T15:01:22;28.70;70.20
37874;DHT22;23709;48.078;11.684;2023-09-07T15:03:55;28.40;70.10
37874;DHT22;23709;48.078;11.684;2023-09-07T15:06:27;28.00;69.90
37874;DHT22;23709;48.078;11.684;2023-09-07T15:09:01;27.70;71.00
37874;DHT22;23709;48.078;11.684;2023-09-07T15:11:34;27.40;72.20
37874;DHT22;23709;48.078;11.684;2023-09-07T15:14:06;27.30;72.20
37874;DHT22;23709;48.078;11.684;2023-09-07T15:16:39;27.00;73.90
37874;DHT22;23709;48.078;11.684;2023-09-07T15:19:12;26.90;73.70
37874;DHT22;23709;48.078;11.684;2023-09-07T15:21:44;26.60;74.90
37874;DHT22;23709;48.078;11.684;2023-09-07T15:24:18;26.60;75.10
37874;DHT22;23709;48.078;11.684;2023-09-07T15:26:50;26.60;74.20
37874;DHT22;23709;48.078;11.684;2023-09-07T15:29:22;26.70;74.30
37874;DHT22;23709;48.078;11.684;2023-09-07T15:31:55;26.80;74.00
37874;DHT22;23709;48.078;11.684;2023-09-07T15:34:27;26.60;73.10
37874;DHT22;23709;48.078;11.684;2023-09-07T15:37:03;26.50;73.10
37874;DHT22;23709;48.078;11.684;2023-09-07T15:39:35;26.40;74.40
37874;DHT22;23709;48.078;11.684;2023-09-07T15:42:07;26.30;74.90
37874;DHT22;23709;48.078;11.684;2023-09-07T15:44:39;26.20;75.10
37874;DHT22;23709;48.078;11.684;2023-09-07T15:47:14;26.20;75.60
37874;DHT22;23709;48.078;11.684;2023-09-07T15:49:46;26.10;76.30
37874;DHT22;23709;48.078;11.684;2023-09-07T15:52:21;25.90;76.80